sensor_id;sensor_type;location;lat;lon;timestamp;pressure;altitude;pressure_sealevel;temperature;humidity
72118;BME280;59992;47.490;8.736;2023-04-01T00:02:25;95644.73;;;7.85;77.61
72118;BME280;59992;47.490;8.736;2023-04-01T00:05:15;95647.77;;;7.85;77.68
72118;BME280;59992;47.490;8.736;2023-04-01T00:08:06;95645.96;;;7.86;77.20
72118;BME280;59992;47.490;8.736;2023-04-01T00:10:56;95644.41;;;7.81;77.53
72118;BME280;59992;47.490;8.736;2023-04-01T00:13:46;95647.38;;;7.83;77.41
72118;BME280;59992;47.490;8.736;2023-04-01T00:16:37;95653.71;;;7.84;77.42
72118;BME280;59992;47.490;8.736;2023-04-01T00:19:27;95652.73;;;7.85;77.67
72118;BME280;59992;47.490;8.736;2023-04-01T00:22:18;95656.84;;;7.79;77.34
72118;BME280;59992;47.490;8.736;2023-04-01T00:25:09;95656.27;;;7.84;77.45
72118;BME280;59992;47.490;8.736;2023-04-01T00:28:00;95661.98;;;7.82;78.44
72118;BME280;59992;47.490;8.736;2023-04-01T00:30:50;95659.27;;;7.73;79.35
72118;BME280;59992;47.490;8.736;2023-04-01T00:33:41;95663.16;;;7.70;79.94
72118;BME280;59992;47.490;8.736;2023-04-01T00:36:31;95661.80;;;7.70;80.43
72118;BME280;59992;47.490;8.736;2023-04-01T00:39:21;95662.77;;;7.70;80.46
72118;BME280;59992;47.490;8.736;2023-04-01T00:42:12;95653.09;;;7.57;80.33
72118;BME280;59992;47.490;8.736;2023-04-01T00:45:26;95663.05;;;7.59;80.55
72118;BME280;59992;47.490;8.736;2023-04-01T00:48:18;95666.16;;;7.60;79.48
72118;BME280;59992;47.490;8.736;2023-04-01T00:51:11;95659.38;;;7.54;78.89
72118;BME280;59992;47.490;8.736;2023-04-01T00:54:04;95671.04;;;7.65;78.55
72118;BME280;59992;47.490;8.736;2023-04-01T00:56:57;95670.98;;;7.69;78.06
72118;BME280;59992;47.490;8.736;2023-04-01T00:59:52;95677.67;;;7.75;77.28
72118;BME280;59992;47.490;8.736;2023-04-01T01:02:44;95667.72;;;7.81;77.46
72118;BME280;59992;47.490;8.736;2023-04-01T01:05:42;95661.47;;;7.83;77.28
72118;BME280;59992;47.490;8.736;2023-04-01T01:08:49;95663.91;;;7.87;76.61
72118;BME280;59992;47.490;8.736;2023-04-01T01:11:50;95655.84;;;7.86;76.22
72118;BME280;59992;47.490;8.736;2023-04-01T01:14:52;95649.69;;;7.90;75.74
72118;BME280;59992;47.490;8.736;2023-04-01T01:17:51;95647.05;;;7.90;76.23
72118;BME280;59992;47.490;8.736;2023-04-01T01:21:14;95642.56;;;7.94;75.10
72118;BME280;59992;47.490;8.736;2023-04-01T01:24:22;95645.35;;;7.94;75.39
72118;BME280;59992;47.490;8.736;2023-04-01T01:27:16;95643.94;;;7.95;74.99
72118;BME280;59992;47.490;8.736;2023-04-01T01:30:31;95646.71;;;7.93;75.51
72118;BME280;59992;47.490;8.736;2023-04-01T01:33:38;95647.38;;;7.93;75.20
72118;BME280;59992;47.490;8.736;2023-04-01T01:36:32;95647.15;;;7.93;75.11
72118;BME280;59992;47.490;8.736;2023-04-01T01:39:26;95645.92;;;7.91;74.74
72118;BME280;59992;47.490;8.736;2023-04-01T01:42:19;95642.80;;;7.86;74.99
72118;BME280;59992;47.490;8.736;2023-04-01T01:45:11;95644.61;;;7.79;75.80
72118;BME280;59992;47.490;8.736;2023-04-01T01:48:05;95646.77;;;7.82;75.14
72118;BME280;59992;47.490;8.736;2023-04-01T01:50:56;95640.02;;;7.79;75.56
72118;BME280;59992;47.490;8.736;2023-04-01T01:53:47;95641.69;;;7.80;75.66
72118;BME280;59992;47.490;8.736;2023-04-01T01:56:39;95631.93;;;7.84;75.90
72118;BME280;59992;47.490;8.736;2023-04-01T01:59:33;95622.95;;;7.82;75.32
72118;BME280;59992;47.490;8.736;2023-04-01T02:02:25;95619.00;;;7.79;75.75
72118;BME280;59992;47.490;8.736;2023-04-01T02:05:18;95620.52;;;7.79;75.98
72118;BME280;59992;47.490;8.736;2023-04-01T02:08:13;95625.65;;;7.80;75.80
72118;BME280;59992;47.490;8.736;2023-04-01T02:11:07;95617.68;;;7.74;75.47
72118;BME280;59992;47.490;8.736;2023-04-01T02:14:02;95622.27;;;7.75;75.49
72118;BME280;59992;47.490;8.736;2023-04-01T02:16:58;95620.70;;;7.74;75.78
72118;BME280;59992;47.490;8.736;2023-04-01T02:19:53;95619.06;;;7.77;75.31
72118;BME280;59992;47.490;8.736;2023-04-01T02:22:50;95618.89;;;7.75;75.45
72118;BME280;59992;47.490;8.736;2023-04-01T02:25:43;95611.98;;;7.78;74.97
72118;BME280;59992;47.490;8.736;2023-04-01T02:28:34;95608.52;;;7.79;74.76
72118;BME280;59992;47.490;8.736;2023-04-01T02:31:26;95611.77;;;7.79;74.45
72118;BME280;59992;47.490;8.736;2023-04-01T02:34:17;95607.42;;;7.73;74.45
72118;BME280;59992;47.490;8.736;2023-04-01T02:37:08;95605.54;;;7.72;73.65
72118;BME280;59992;47.490;8.736;2023-04-01T02:40:01;95602.47;;;7.76;73.51
72118;BME280;59992;47.490;8.736;2023-04-01T02:42:52;95608.45;;;7.69;73.41
72118;BME280;59992;47.490;8.736;2023-04-01T02:45:42;95614.03;;;7.63;73.73
72118;BME280;59992;47.490;8.736;2023-04-01T02:48:32;95615.02;;;7.63;74.00
72118;BME280;59992;47.490;8.736;2023-04-01T02:51:22;95616.50;;;7.68;73.68
72118;BME280;59992;47.490;8.736;2023-04-01T02:54:12;95618.77;;;7.69;73.42
72118;BME280;59992;47.490;8.736;2023-04-01T02:57:02;95620.11;;;7.69;74.53
72118;BME280;59992;47.490;8.736;2023-04-01T02:59:53;95608.52;;;7.60;75.81
72118;BME280;59992;47.490;8.736;2023-04-01T03:02:43;95617.19;;;7.53;76.38
72118;BME280;59992;47.490;8.736;2023-04-01T03:05:33;95611.56;;;7.55;76.53
72118;BME280;59992;47.490;8.736;2023-04-01T03:08:24;95615.29;;;7.44;76.25
72118;BME280;59992;47.490;8.736;2023-04-01T03:11:14;95604.64;;;7.49;76.05
72118;BME280;59992;47.490;8.736;2023-04-01T03:14:04;95602.57;;;7.45;75.69
72118;BME280;59992;47.490;8.736;2023-04-01T03:16:56;95613.36;;;7.47;75.54
72118;BME280;59992;47.490;8.736;2023-04-01T03:19:46;95613.84;;;7.43;75.01
72118;BME280;59992;47.490;8.736;2023-04-01T03:22:36;95615.79;;;7.33;74.77
72118;BME280;59992;47.490;8.736;2023-04-01T03:25:26;95617.01;;;7.36;74.44
72118;BME280;59992;47.490;8.736;2023-04-01T03:28:19;95618.11;;;7.31;75.32
72118;BME280;59992;47.490;8.736;2023-04-01T03:31:10;95612.25;;;7.25;74.95
72118;BME280;59992;47.490;8.736;2023-04-01T03:34:00;95612.03;;;7.27;74.78
72118;BME280;59992;47.490;8.736;2023-04-01T03:36:50;95606.13;;;7.23;74.58
72118;BME280;59992;47.490;8.736;2023-04-01T03:39:41;95602.84;;;7.19;74.71
72118;BME280;59992;47.490;8.736;2023-04-01T03:42:32;95597.27;;;7.12;75.20
72118;BME280;59992;47.490;8.736;2023-04-01T03:45:22;95592.54;;;7.12;74.85
72118;BME280;59992;47.490;8.736;2023-04-01T03:48:13;95586.13;;;7.13;74.81
72118;BME280;59992;47.490;8.736;2023-04-01T03:51:07;95583.00;;;7.08;75.01
72118;BME280;59992;47.490;8.736;2023-04-01T03:53:57;95592.31;;;7.12;74.53
72118;BME280;59992;47.490;8.736;2023-04-01T03:56:48;95603.23;;;7.14;74.68
72118;BME280;59992;47.490;8.736;2023-04-01T03:59:38;95611.71;;;7.18;74.65
72118;BME280;59992;47.490;8.736;2023-04-01T04:02:29;95607.92;;;7.15;74.48
72118;BME280;59992;47.490;8.736;2023-04-01T04:05:19;95605.91;;;7.17;74.46
72118;BME280;59992;47.490;8.736;2023-04-01T04:08:09;95612.20;;;7.14;74.67
72118;BME280;59992;47.490;8.736;2023-04-01T04:10:59;95614.48;;;7.15;74.25
72118;BME280;59992;47.490;8.736;2023-04-01T04:13:49;95624.00;;;7.19;74.88
72118;BME280;59992;47.490;8.736;2023-04-01T04:16:41;95624.22;;;7.18;77.33
72118;BME280;59992;47.490;8.736;2023-04-01T04:19:34;95626.43;;;7.14;78.04
72118;BME280;59992;47.490;8.736;2023-04-01T04:22:25;95626.48;;;7.05;79.57
72118;BME280;59992;47.490;8.736;2023-04-01T04:25:15;95617.14;;;7.03;79.71
72118;BME280;59992;47.490;8.736;2023-04-01T04:28:05;95621.75;;;7.06;79.12
72118;BME280;59992;47.490;8.736;2023-04-01T04:30:56;95616.59;;;7.02;80.75
72118;BME280;59992;47.490;8.736;2023-04-01T04:33:46;95617.43;;;6.96;80.75
72118;BME280;59992;47.490;8.736;2023-04-01T04:36:37;95619.08;;;6.95;80.30
72118;BME280;59992;47.490;8.736;2023-04-01T04:39:27;95618.70;;;6.95;79.72
72118;BME280;59992;47.490;8.736;2023-04-01T04:42:17;95620.11;;;6.87;79.64
72118;BME280;59992;47.490;8.736;2023-04-01T04:45:09;95626.25;;;6.97;79.35
72118;BME280;59992;47.490;8.736;2023-04-01T04:47:59;95622.29;;;7.00;78.60
72118;BME280;59992;47.490;8.736;2023-04-01T04:50:50;95616.08;;;6.97;78.64
72118;BME280;59992;47.490;8.736;2023-04-01T04:53:41;95627.00;;;6.98;77.91
72118;BME280;59992;47.490;8.736;2023-04-01T04:56:31;95630.34;;;7.05;77.76
72118;BME280;59992;47.490;8.736;2023-04-01T04:59:21;95630.14;;;7.08;77.83
72118;BME280;59992;47.490;8.736;2023-04-01T05:02:12;95632.33;;;7.09;77.11
72118;BME280;59992;47.490;8.736;2023-04-01T05:05:02;95638.71;;;7.15;76.97
72118;BME280;59992;47.490;8.736;2023-04-01T05:07:53;95640.45;;;7.15;77.12
72118;BME280;59992;47.490;8.736;2023-04-01T05:10:43;95645.90;;;7.18;76.75
72118;BME280;59992;47.490;8.736;2023-04-01T05:13:33;95649.70;;;7.13;77.31
72118;BME280;59992;47.490;8.736;2023-04-01T05:16:23;95649.89;;;7.17;76.56
72118;BME280;59992;47.490;8.736;2023-04-01T05:19:13;95652.17;;;7.20;75.96
72118;BME280;59992;47.490;8.736;2023-04-01T05:22:03;95663.11;;;7.21;75.97
72118;BME280;59992;47.490;8.736;2023-04-01T05:24:54;95664.33;;;7.16;76.15
72118;BME280;59992;47.490;8.736;2023-04-01T05:27:46;95659.92;;;7.19;75.67
72118;BME280;59992;47.490;8.736;2023-04-01T05:30:36;95658.77;;;7.24;75.75
72118;BME280;59992;47.490;8.736;2023-04-01T05:33:26;95658.73;;;7.26;75.60
72118;BME280;59992;47.490;8.736;2023-04-01T05:36:17;95657.91;;;7.21;75.66
72118;BME280;59992;47.490;8.736;2023-04-01T05:39:08;95665.30;;;7.22;75.84
72118;BME280;59992;47.490;8.736;2023-04-01T05:41:59;95668.69;;;7.22;76.04
72118;BME280;59992;47.490;8.736;2023-04-01T05:44:49;95674.18;;;7.21;76.16
72118;BME280;59992;47.490;8.736;2023-04-01T05:47:39;95675.94;;;7.23;77.29
72118;BME280;59992;47.490;8.736;2023-04-01T05:50:30;95680.43;;;7.22;78.86
72118;BME280;59992;47.490;8.736;2023-04-01T05:53:20;95680.45;;;7.23;77.86
72118;BME280;59992;47.490;8.736;2023-04-01T05:56:11;95683.23;;;7.15;79.39
72118;BME280;59992;47.490;8.736;2023-04-01T05:59:02;95676.45;;;7.15;78.94
72118;BME280;59992;47.490;8.736;2023-04-01T06:01:52;95678.67;;;7.19;78.82
72118;BME280;59992;47.490;8.736;2023-04-01T06:04:44;95675.41;;;7.16;78.08
72118;BME280;59992;47.490;8.736;2023-04-01T06:07:35;95677.65;;;7.22;78.67
72118;BME280;59992;47.490;8.736;2023-04-01T06:10:36;95676.27;;;7.33;78.07
72118;BME280;59992;47.490;8.736;2023-04-01T06:13:40;95679.01;;;7.43;78.08
72118;BME280;59992;47.490;8.736;2023-04-01T06:16:42;95677.69;;;7.52;77.73
72118;BME280;59992;47.490;8.736;2023-04-01T06:19:41;95653.73;;;7.45;78.11
72118;BME280;59992;47.490;8.736;2023-04-01T06:23:01;95660.96;;;7.61;77.72
72118;BME280;59992;47.490;8.736;2023-04-01T06:26:04;95656.40;;;7.72;77.62
72118;BME280;59992;47.490;8.736;2023-04-01T06:29:14;95656.38;;;7.88;77.47
72118;BME280;59992;47.490;8.736;2023-04-01T06:32:22;95659.66;;;8.02;76.91
72118;BME280;59992;47.490;8.736;2023-04-01T06:35:24;95664.71;;;8.21;76.36
72118;BME280;59992;47.490;8.736;2023-04-01T06:42:06;95667.95;;;8.49;75.40
72118;BME280;59992;47.490;8.736;2023-04-01T06:45:08;95654.14;;;8.48;74.77
72118;BME280;59992;47.490;8.736;2023-04-01T06:48:08;95646.77;;;8.52;76.11
72118;BME280;59992;47.490;8.736;2023-04-01T06:51:06;95643.41;;;8.72;76.25
72118;BME280;59992;47.490;8.736;2023-04-01T06:54:04;95636.41;;;8.95;74.12
72118;BME280;59992;47.490;8.736;2023-04-01T06:56:59;95637.34;;;9.19;73.31
72118;BME280;59992;47.490;8.736;2023-04-01T06:59:53;95631.73;;;9.37;71.91
72118;BME280;59992;47.490;8.736;2023-04-01T07:02:47;95640.14;;;9.44;72.86
72118;BME280;59992;47.490;8.736;2023-04-01T07:05:43;95636.15;;;9.59;71.48
72118;BME280;59992;47.490;8.736;2023-04-01T07:08:36;95641.01;;;9.72;71.24
72118;BME280;59992;47.490;8.736;2023-04-01T07:11:31;95647.08;;;9.77;69.69
72118;BME280;59992;47.490;8.736;2023-04-01T07:14:28;95642.23;;;9.76;69.03
72118;BME280;59992;47.490;8.736;2023-04-01T07:17:24;95643.89;;;9.74;69.84
72118;BME280;59992;47.490;8.736;2023-04-01T07:20:20;95642.66;;;9.59;69.92
72118;BME280;59992;47.490;8.736;2023-04-01T07:23:20;95646.78;;;9.47;71.02
72118;BME280;59992;47.490;8.736;2023-04-01T07:26:18;95650.02;;;9.38;71.73
72118;BME280;59992;47.490;8.736;2023-04-01T07:29:13;95656.67;;;9.41;71.21
72118;BME280;59992;47.490;8.736;2023-04-01T07:32:24;95658.98;;;9.32;70.94
72118;BME280;59992;47.490;8.736;2023-04-01T07:35:27;95664.96;;;9.33;70.51
72118;BME280;59992;47.490;8.736;2023-04-01T07:38:30;95664.96;;;9.31;71.69
72118;BME280;59992;47.490;8.736;2023-04-01T07:41:30;95666.67;;;9.29;71.43
72118;BME280;59992;47.490;8.736;2023-04-01T07:44:28;95677.03;;;9.26;72.61
72118;BME280;59992;47.490;8.736;2023-04-01T07:47:28;95672.58;;;9.28;72.19
72118;BME280;59992;47.490;8.736;2023-04-01T07:50:27;95672.91;;;9.36;72.90
72118;BME280;59992;47.490;8.736;2023-04-01T07:53:25;95674.34;;;9.34;72.51
72118;BME280;59992;47.490;8.736;2023-04-01T07:56:23;95673.98;;;9.19;73.46
72118;BME280;59992;47.490;8.736;2023-04-01T07:59:21;95683.90;;;9.25;72.63
72118;BME280;59992;47.490;8.736;2023-04-01T08:02:27;95682.63;;;9.29;73.04
72118;BME280;59992;47.490;8.736;2023-04-01T08:05:27;95689.79;;;9.24;74.33
72118;BME280;59992;47.490;8.736;2023-04-01T08:08:22;95686.94;;;9.27;74.32
72118;BME280;59992;47.490;8.736;2023-04-01T08:11:27;95683.24;;;9.29;74.23
72118;BME280;59992;47.490;8.736;2023-04-01T08:14:28;95679.30;;;9.26;74.30
72118;BME280;59992;47.490;8.736;2023-04-01T08:17:31;95679.73;;;9.22;75.58
72118;BME280;59992;47.490;8.736;2023-04-01T08:20:30;95690.02;;;9.24;75.17
72118;BME280;59992;47.490;8.736;2023-04-01T08:23:24;95691.44;;;9.21;74.47
72118;BME280;59992;47.490;8.736;2023-04-01T08:26:22;95689.08;;;9.17;75.76
72118;BME280;59992;47.490;8.736;2023-04-01T08:29:22;95690.17;;;9.07;77.03
72118;BME280;59992;47.490;8.736;2023-04-01T08:32:18;95686.07;;;9.03;76.30
72118;BME280;59992;47.490;8.736;2023-04-01T08:35:20;95695.94;;;8.96;77.31
72118;BME280;59992;47.490;8.736;2023-04-01T08:38:16;95696.00;;;8.93;77.08
72118;BME280;59992;47.490;8.736;2023-04-01T08:41:36;95692.14;;;8.92;76.64
72118;BME280;59992;47.490;8.736;2023-04-01T08:44:59;95695.71;;;8.81;77.43
72118;BME280;59992;47.490;8.736;2023-04-01T08:48:07;95697.71;;;8.77;78.83
72118;BME280;59992;47.490;8.736;2023-04-01T08:51:12;95693.67;;;8.70;79.05
72118;BME280;59992;47.490;8.736;2023-04-01T08:54:20;95699.30;;;8.65;78.28
72118;BME280;59992;47.490;8.736;2023-04-01T08:57:15;95703.26;;;8.69;77.93
72118;BME280;59992;47.490;8.736;2023-04-01T09:00:18;95698.33;;;8.64;78.65
72118;BME280;59992;47.490;8.736;2023-04-01T09:03:30;95694.04;;;8.55;79.00
72118;BME280;59992;47.490;8.736;2023-04-01T09:06:41;95695.70;;;8.46;80.73
72118;BME280;59992;47.490;8.736;2023-04-01T09:13:18;95708.58;;;8.52;81.10
72118;BME280;59992;47.490;8.736;2023-04-01T09:16:23;95709.30;;;8.58;79.47
72118;BME280;59992;47.490;8.736;2023-04-01T09:19:22;95713.89;;;8.57;80.49
72118;BME280;59992;47.490;8.736;2023-04-01T09:22:24;95709.13;;;8.56;81.15
72118;BME280;59992;47.490;8.736;2023-04-01T09:25:24;95708.32;;;8.69;79.76
72118;BME280;59992;47.490;8.736;2023-04-01T09:28:22;95706.33;;;8.66;80.30
72118;BME280;59992;47.490;8.736;2023-04-01T09:31:36;95706.33;;;8.78;78.57
72118;BME280;59992;47.490;8.736;2023-04-01T09:34:51;95709.97;;;8.81;79.71
72118;BME280;59992;47.490;8.736;2023-04-01T09:37:53;95710.16;;;8.86;79.57
72118;BME280;59992;47.490;8.736;2023-04-01T09:40:51;95702.76;;;8.74;80.27
72118;BME280;59992;47.490;8.736;2023-04-01T09:43:57;95705.52;;;8.79;79.41
72118;BME280;59992;47.490;8.736;2023-04-01T09:47:00;95708.36;;;8.76;81.03
72118;BME280;59992;47.490;8.736;2023-04-01T09:49:59;95705.16;;;8.72;80.50
72118;BME280;59992;47.490;8.736;2023-04-01T09:53:06;95710.57;;;8.81;81.28
72118;BME280;59992;47.490;8.736;2023-04-01T09:56:31;95705.23;;;8.84;80.74
72118;BME280;59992;47.490;8.736;2023-04-01T10:07:06;95696.83;;;9.49;78.37
72118;BME280;59992;47.490;8.736;2023-04-01T10:10:27;95697.95;;;9.72;76.64
72118;BME280;59992;47.490;8.736;2023-04-01T10:17:05;95692.48;;;9.99;74.94
72118;BME280;59992;47.490;8.736;2023-04-01T10:20:15;95695.16;;;10.15;74.71
72118;BME280;59992;47.490;8.736;2023-04-01T10:23:23;95689.40;;;10.46;74.54
72118;BME280;59992;47.490;8.736;2023-04-01T10:26:30;95687.57;;;10.62;72.93
72118;BME280;59992;47.490;8.736;2023-04-01T10:29:46;95695.73;;;10.69;72.46
72118;BME280;59992;47.490;8.736;2023-04-01T10:33:07;95697.17;;;10.71;72.71
72118;BME280;59992;47.490;8.736;2023-04-01T10:36:32;95694.75;;;10.77;72.59
72118;BME280;59992;47.490;8.736;2023-04-01T10:40:02;95698.75;;;10.76;73.30
72118;BME280;59992;47.490;8.736;2023-04-01T10:53:30;95687.16;;;11.09;70.94
72118;BME280;59992;47.490;8.736;2023-04-01T10:56:41;95687.98;;;11.16;70.29
72118;BME280;59992;47.490;8.736;2023-04-01T11:00:04;95687.08;;;11.32;70.34
72118;BME280;59992;47.490;8.736;2023-04-01T11:06:57;95692.77;;;11.32;69.11
72118;BME280;59992;47.490;8.736;2023-04-01T11:14:01;95691.66;;;11.59;67.94
72118;BME280;59992;47.490;8.736;2023-04-01T11:17:15;95690.31;;;11.54;66.53
72118;BME280;59992;47.490;8.736;2023-04-01T11:20:25;95690.45;;;11.58;66.36
72118;BME280;59992;47.490;8.736;2023-04-01T11:23:26;95688.92;;;11.61;66.27
72118;BME280;59992;47.490;8.736;2023-04-01T11:26:33;95685.77;;;11.55;65.69
72118;BME280;59992;47.490;8.736;2023-04-01T11:29:41;95686.75;;;11.74;65.83
72118;BME280;59992;47.490;8.736;2023-04-01T11:32:43;95695.27;;;11.67;66.12
72118;BME280;59992;47.490;8.736;2023-04-01T11:35:47;95694.19;;;11.70;67.23
72118;BME280;59992;47.490;8.736;2023-04-01T11:42:06;95692.86;;;11.91;65.08
72118;BME280;59992;47.490;8.736;2023-04-01T11:45:11;95690.62;;;11.98;64.24
72118;BME280;59992;47.490;8.736;2023-04-01T11:48:15;95698.66;;;11.99;64.33
72118;BME280;59992;47.490;8.736;2023-04-01T11:51:29;95692.78;;;11.80;65.78
72118;BME280;59992;47.490;8.736;2023-04-01T11:54:39;95699.39;;;11.92;66.01
72118;BME280;59992;47.490;8.736;2023-04-01T11:57:54;95703.23;;;11.82;65.53
72118;BME280;59992;47.490;8.736;2023-04-01T12:01:15;95703.73;;;11.75;66.21
72118;BME280;59992;47.490;8.736;2023-04-01T12:04:32;95702.63;;;11.65;65.46
72118;BME280;59992;47.490;8.736;2023-04-01T12:07:43;95704.94;;;11.38;66.90
72118;BME280;59992;47.490;8.736;2023-04-01T12:10:42;95705.45;;;11.43;67.55
72118;BME280;59992;47.490;8.736;2023-04-01T12:13:42;95705.33;;;11.39;68.26
72118;BME280;59992;47.490;8.736;2023-04-01T12:16:44;95711.69;;;11.43;67.87
72118;BME280;59992;47.490;8.736;2023-04-01T12:19:46;95720.21;;;11.28;68.49
72118;BME280;59992;47.490;8.736;2023-04-01T12:22:47;95710.02;;;11.19;69.63
72118;BME280;59992;47.490;8.736;2023-04-01T12:26:10;95708.95;;;11.20;69.85
72118;BME280;59992;47.490;8.736;2023-04-01T12:29:29;95709.85;;;11.24;69.44
72118;BME280;59992;47.490;8.736;2023-04-01T12:32:34;95699.50;;;11.16;69.19
72118;BME280;59992;47.490;8.736;2023-04-01T12:35:34;95695.91;;;11.21;69.88
72118;BME280;59992;47.490;8.736;2023-04-01T12:38:35;95701.05;;;11.25;69.59
72118;BME280;59992;47.490;8.736;2023-04-01T12:41:36;95709.11;;;11.16;70.29
72118;BME280;59992;47.490;8.736;2023-04-01T12:44:53;95713.55;;;10.98;70.18
72118;BME280;59992;47.490;8.736;2023-04-01T12:48:05;95712.84;;;10.76;71.22
72118;BME280;59992;47.490;8.736;2023-04-01T12:51:28;95719.06;;;10.67;71.52
72118;BME280;59992;47.490;8.736;2023-04-01T13:01:09;95704.30;;;10.64;73.28
72118;BME280;59992;47.490;8.736;2023-04-01T13:04:35;95699.63;;;10.93;71.93
72118;BME280;59992;47.490;8.736;2023-04-01T13:07:53;95692.99;;;11.08;70.25
72118;BME280;59992;47.490;8.736;2023-04-01T13:10:59;95687.63;;;11.28;69.09
72118;BME280;59992;47.490;8.736;2023-04-01T13:14:11;95685.39;;;11.51;68.37
72118;BME280;59992;47.490;8.736;2023-04-01T13:17:12;95680.10;;;11.66;67.53
72118;BME280;59992;47.490;8.736;2023-04-01T13:20:14;95675.98;;;11.86;65.80
72118;BME280;59992;47.490;8.736;2023-04-01T13:23:14;95676.80;;;12.10;65.47
72118;BME280;59992;47.490;8.736;2023-04-01T13:26:17;95675.37;;;12.18;65.07
72118;BME280;59992;47.490;8.736;2023-04-01T13:29:14;95669.09;;;12.43;64.38
72118;BME280;59992;47.490;8.736;2023-04-01T13:32:22;95667.82;;;12.49;62.54
72118;BME280;59992;47.490;8.736;2023-04-01T13:35:26;95676.22;;;12.69;61.92
72118;BME280;59992;47.490;8.736;2023-04-01T13:38:48;95671.92;;;12.73;61.50
72118;BME280;59992;47.490;8.736;2023-04-01T13:41:59;95683.77;;;12.67;61.08
72118;BME280;59992;47.490;8.736;2023-04-01T13:44:59;95679.03;;;12.70;59.66
72118;BME280;59992;47.490;8.736;2023-04-01T13:51:34;95682.04;;;12.57;60.34
72118;BME280;59992;47.490;8.736;2023-04-01T13:58:11;95671.69;;;12.65;60.37
72118;BME280;59992;47.490;8.736;2023-04-01T14:01:08;95671.41;;;12.65;59.58
72118;BME280;59992;47.490;8.736;2023-04-01T14:04:32;95672.70;;;12.72;60.55
72118;BME280;59992;47.490;8.736;2023-04-01T14:07:44;95672.38;;;12.66;60.51
72118;BME280;59992;47.490;8.736;2023-04-01T14:10:42;95661.13;;;12.81;59.92
72118;BME280;59992;47.490;8.736;2023-04-01T14:13:43;95667.34;;;12.83;59.90
72118;BME280;59992;47.490;8.736;2023-04-01T14:16:54;95667.63;;;12.70;59.54
72118;BME280;59992;47.490;8.736;2023-04-01T14:20:04;95666.00;;;12.66;60.03
72118;BME280;59992;47.490;8.736;2023-04-01T14:23:38;95672.80;;;12.43;59.45
72118;BME280;59992;47.490;8.736;2023-04-01T14:26:50;95672.20;;;12.16;60.37
72118;BME280;59992;47.490;8.736;2023-04-01T14:29:59;95662.76;;;12.18;60.60
72118;BME280;59992;47.490;8.736;2023-04-01T14:32:59;95671.77;;;12.13;60.30
72118;BME280;59992;47.490;8.736;2023-04-01T14:36:01;95679.37;;;12.12;60.69
72118;BME280;59992;47.490;8.736;2023-04-01T14:39:02;95675.42;;;11.90;61.16
72118;BME280;59992;47.490;8.736;2023-04-01T14:42:14;95676.69;;;11.69;64.14
72118;BME280;59992;47.490;8.736;2023-04-01T14:45:29;95700.06;;;11.63;66.75
72118;BME280;59992;47.490;8.736;2023-04-01T14:48:30;95723.16;;;11.34;66.24
72118;BME280;59992;47.490;8.736;2023-04-01T14:51:28;95726.45;;;10.99;67.62
72118;BME280;59992;47.490;8.736;2023-04-01T14:54:21;95753.67;;;10.65;69.81
72118;BME280;59992;47.490;8.736;2023-04-01T14:57:25;95754.02;;;10.13;72.91
72118;BME280;59992;47.490;8.736;2023-04-01T15:00:18;95734.41;;;9.74;75.36
72118;BME280;59992;47.490;8.736;2023-04-01T15:03:14;95735.66;;;9.63;78.30
72118;BME280;59992;47.490;8.736;2023-04-01T15:06:35;95724.66;;;9.51;77.13
72118;BME280;59992;47.490;8.736;2023-04-01T15:09:34;95723.13;;;9.49;77.70
72118;BME280;59992;47.490;8.736;2023-04-01T15:12:32;95726.73;;;9.40;79.40
72118;BME280;59992;47.490;8.736;2023-04-01T15:15:42;95730.27;;;9.40;79.37
72118;BME280;59992;47.490;8.736;2023-04-01T15:18:44;95739.00;;;9.29;79.00
72118;BME280;59992;47.490;8.736;2023-04-01T15:21:58;95742.45;;;9.24;79.86
72118;BME280;59992;47.490;8.736;2023-04-01T15:25:01;95738.29;;;9.20;81.12
72118;BME280;59992;47.490;8.736;2023-04-01T15:27:59;95736.32;;;9.23;81.53
72118;BME280;59992;47.490;8.736;2023-04-01T15:31:00;95719.64;;;9.22;79.40
72118;BME280;59992;47.490;8.736;2023-04-01T15:34:06;95708.23;;;9.28;79.86
72118;BME280;59992;47.490;8.736;2023-04-01T15:37:02;95709.70;;;9.35;77.67
72118;BME280;59992;47.490;8.736;2023-04-01T15:40:00;95709.27;;;9.39;77.24
72118;BME280;59992;47.490;8.736;2023-04-01T15:43:05;95708.27;;;9.36;78.07
72118;BME280;59992;47.490;8.736;2023-04-01T15:46:08;95711.55;;;9.45;77.97
72118;BME280;59992;47.490;8.736;2023-04-01T15:49:07;95715.96;;;9.52;75.37
72118;BME280;59992;47.490;8.736;2023-04-01T15:52:13;95710.98;;;9.54;75.35
72118;BME280;59992;47.490;8.736;2023-04-01T15:55:25;95711.26;;;9.70;75.58
72118;BME280;59992;47.490;8.736;2023-04-01T15:58:36;95706.89;;;9.79;76.20
72118;BME280;59992;47.490;8.736;2023-04-01T16:01:37;95707.35;;;9.83;75.46
72118;BME280;59992;47.490;8.736;2023-04-01T16:04:49;95701.55;;;9.91;75.83
72118;BME280;59992;47.490;8.736;2023-04-01T16:07:51;95701.99;;;9.94;74.93
72118;BME280;59992;47.490;8.736;2023-04-01T16:10:54;95696.67;;;10.13;75.56
72118;BME280;59992;47.490;8.736;2023-04-01T16:13:58;95697.89;;;10.22;73.90
72118;BME280;59992;47.490;8.736;2023-04-01T16:17:00;95690.48;;;10.30;73.33
72118;BME280;59992;47.490;8.736;2023-04-01T16:19:57;95693.73;;;10.35;74.06
72118;BME280;59992;47.490;8.736;2023-04-01T16:22:57;95696.84;;;10.41;72.90
72118;BME280;59992;47.490;8.736;2023-04-01T16:25:55;95694.71;;;10.34;72.42
72118;BME280;59992;47.490;8.736;2023-04-01T16:28:55;95699.71;;;10.30;73.17
72118;BME280;59992;47.490;8.736;2023-04-01T16:31:52;95703.41;;;10.29;73.24
72118;BME280;59992;47.490;8.736;2023-04-01T16:34:53;95706.14;;;10.24;73.03
72118;BME280;59992;47.490;8.736;2023-04-01T16:37:49;95702.42;;;10.25;73.76
72118;BME280;59992;47.490;8.736;2023-04-01T16:40:46;95704.48;;;10.24;73.87
72118;BME280;59992;47.490;8.736;2023-04-01T16:43:44;95701.30;;;10.17;74.60
72118;BME280;59992;47.490;8.736;2023-04-01T16:46:39;95708.86;;;10.18;74.10
72118;BME280;59992;47.490;8.736;2023-04-01T16:49:39;95702.35;;;10.08;74.45
72118;BME280;59992;47.490;8.736;2023-04-01T16:52:57;95709.84;;;10.14;74.11
72118;BME280;59992;47.490;8.736;2023-04-01T16:55:51;95707.47;;;10.02;73.76